Latest Weather Observations for Redcliffe

IDQ60901

Issued at 10:01 am EST Wednesday 24 July 2024 (issued every 10 minutes, with the page automatically refreshed every 10 minutes)

About weather observations | Map of Brisbane area stations | Latest observations for Brisbane area | Other Formats
Station Details ID: 040958 Name: REDCLIFFE Lat: -27.22 Lon: 153.09 Height: 12.6 m
Data from the previous 72 hours. | See also: Recent months at Redcliffe
Date/Time
EST
Temp
°C
App
Temp
°C
Dew
Point
°C
Rel
Hum
%
Delta-T
°C
Wind Press
QNH
hPa
Press
MSL
hPa
Rain since
9am
mm
Dir  Spd
km/h
Gust
km/h
Spd
kts
Gust
kts
24/10:00am 19.2 16.6 12.0 63 4.0 S 17 26 9 14 1026.4 1026.4 0.0
24/09:30am 18.6 16.0 11.9 65 3.7 SSW 17 22 9 12 1026.5 1026.5 0.0
24/09:00am 17.2 14.4 11.2 68 3.2 SSW 17 24 9 13 1026.5 1026.5 0.0
24/08:30am 15.6 13.1 11.2 75 2.4 SSW 15 20 8 11 1026.3 1026.3 0.0
24/08:00am 14.3 11.6 10.5 78 2.0 SW 15 20 8 11 1026.1 1026.1 0.0
24/07:30am 13.0 10.0 10.5 85 1.3 SW 17 20 9 11 1025.9 1025.9 0.0
24/07:00am 12.1 9.3 10.0 87 1.1 SW 15 19 8 10 1025.5 1025.5 0.0
24/06:30am 11.9 9.1 10.1 89 0.9 SW 15 20 8 11 1025.3 1025.3 0.0
24/06:00am 11.8 9.4 10.2 90 0.8 SW 13 19 7 10 1025.3 1025.3 0.0
24/05:30am 11.9 9.2 10.5 91 0.7 SW 15 19 8 10 1025.0 1025.0 0.0
24/05:00am 11.6 9.0 10.8 95 0.4 SSW 15 22 8 12 1024.8 1024.8 0.0
24/04:30am 11.6 8.3 10.8 95 0.4 SW 19 24 10 13 1024.7 1024.7 0.0
24/04:00am 11.6 9.1 11.0 96 0.3 SW 15 22 8 12 1024.7 1024.7 0.0
24/03:30am 11.7 9.2 11.1 96 0.3 SW 15 20 8 11 1024.7 1024.7 0.0
24/03:00am 11.9 9.4 11.1 95 0.4 SW 15 19 8 10 1024.9 1024.9 0.0
24/02:30am 11.9 9.0 11.1 95 0.4 SW 17 20 9 11 1025.0 1025.0 0.0
24/02:00am 11.9 9.0 11.1 95 0.4 SW 17 20 9 11 1025.3 1025.3 0.0
24/01:30am 11.9 9.4 11.0 94 0.5 SW 15 20 8 11 1025.3 1025.3 0.0
24/01:00am 11.8 9.2 10.7 93 0.6 SW 15 19 8 10 1025.5 1025.5 0.0
24/12:30am 11.5 9.2 10.4 93 0.6 SW 13 15 7 8 1025.6 1025.6 0.0
24/12:00am 11.7 9.8 10.4 92 0.7 SW 11 13 6 7 1025.7 1025.7 0.0
 
Date/Time
EST
Temp
°C
App
Temp
°C
Dew
Point
°C
Rel
Hum
%
Delta-T
°C
Wind Press
QNH
hPa
Press
MSL
hPa
Rain since
9am
mm
Dir  Spd
km/h
Gust
km/h
Spd
kts
Gust
kts
23/11:30pm 11.9 9.6 10.5 91 0.7 SW 13 15 7 8 1025.9 1025.9 0.0
23/11:00pm 12.0 10.1 10.4 90 0.8 SW 11 13 6 7 1025.9 1025.9 0.0
23/10:30pm 12.1 9.7 10.2 88 1.0 SW 13 15 7 8 1026.0 1026.0 0.0
23/10:00pm 12.5 10.2 10.4 87 1.1 SW 13 15 7 8 1026.1 1026.1 0.0
23/09:30pm 12.5 10.6 10.6 88 1.0 SW 11 13 6 7 1026.0 1026.0 0.0
23/09:00pm 12.9 11.3 11.6 92 0.7 S 11 13 6 7 1026.1 1026.1 0.0
23/08:30pm 12.9 11.3 11.5 91 0.7 SSW 11 13 6 7 1026.1 1026.1 0.0
23/08:00pm 13.4 12.3 12.0 91 0.7 SSW 9 13 5 7 1026.1 1026.1 0.0
23/07:30pm 14.0 12.1 11.7 86 1.2 SSE 13 17 7 9 1025.8 1025.8 0.0
23/07:00pm 15.1 14.5 12.4 84 1.5 S 7 9 4 5 1025.7 1025.7 0.0
23/06:30pm 16.2 15.9 12.7 80 1.9 SSE 6 7 3 4 1025.6 1025.6 0.0
23/06:00pm 16.5 16.0 12.5 77 2.2 SSE 7 9 4 5 1025.4 1025.4 0.0
23/05:30pm 16.9 15.9 12.4 75 2.5 ESE 9 11 5 6 1025.2 1025.2 0.0
23/05:00pm 17.6 15.8 10.9 65 3.6 ESE 11 13 6 7 1024.9 1024.9 0.0
23/04:30pm 18.5 15.6 8.2 51 5.3 ESE 13 17 7 9 1024.8 1024.8 0.0
23/04:00pm 19.1 17.3 8.1 49 5.6 SE 7 9 4 5 1024.7 1024.7 0.0
23/03:30pm 19.4 18.1 7.8 47 5.9 ESE 4 9 2 5 1024.7 1024.7 0.0
23/03:00pm 19.5 18.7 6.6 43 6.4 CALM 0 0 0 0 1024.7 1024.7 0.0
23/02:30pm 19.6 17.9 7.4 45 6.2 E 6 7 3 4 1024.7 1024.7 0.0
23/02:00pm 20.0 18.0 7.1 43 6.5 ESE 7 9 4 5 1024.7 1024.7 0.0
23/01:30pm 20.3 18.7 8.0 45 6.4 ESE 6 7 3 4 1024.9 1024.9 0.0
23/01:00pm 19.7 17.6 8.4 48 5.8 ESE 9 11 5 6 1025.5 1025.5 0.0
23/12:30pm 20.8 18.6 7.8 43 6.7 SE 9 9 5 5 1025.9 1025.9 0.0
23/12:00pm 20.5 18.1 8.8 47 6.1 SSE 11 15 6 8 1026.3 1026.3 0.0
23/11:30am 19.9 16.4 8.6 48 5.9 S 17 20 9 11 1026.9 1026.9 0.0
23/11:00am 19.3 15.8 8.6 50 5.5 S 17 22 9 12 1027.2 1027.2 0.0
23/10:30am 19.2 15.8 9.1 52 5.3 S 17 20 9 11 1027.5 1027.5 0.0
23/10:00am 17.9 15.4 9.8 59 4.3 S 13 17 7 9 1027.7 1027.7 0.0
23/09:30am 16.6 13.7 9.8 64 3.6 SSW 15 20 8 11 1027.9 1027.9 0.0
23/09:00am 14.9 12.1 10.1 73 2.5 SSW 15 20 8 11 1028.0 1028.0 0.0
23/08:30am 13.0 10.0 9.3 78 1.9 SW 15 19 8 10 1027.8 1027.8 0.0
23/08:00am 11.0 8.5 8.4 84 1.3 WSW 11 15 6 8 1027.7 1027.7 0.0
23/07:30am 9.3 6.6 7.4 88 0.9 WSW 11 13 6 7 1027.5 1027.5 0.0
23/07:00am 8.4 6.1 7.3 93 0.5 WSW 9 13 5 7 1027.3 1027.3 0.0
23/06:30am 8.0 5.2 6.9 93 0.5 SW 11 15 6 8 1027.0 1027.0 0.0
23/06:00am 8.4 6.1 7.3 93 0.5 WSW 9 13 5 7 1026.5 1026.5 0.0
23/05:30am 8.5 5.0 7.1 91 0.7 SW 15 17 8 9 1026.4 1026.4 0.0
23/05:00am 8.9 5.1 7.4 90 0.7 SW 17 20 9 11 1026.3 1026.3 0.0
23/04:30am 9.1 5.7 7.7 91 0.7 SW 15 17 8 9 1026.1 1026.1 0.0
23/04:00am 9.3 6.3 7.7 90 0.8 SW 13 17 7 9 1025.8 1025.8 0.0
23/03:30am 9.3 6.3 7.7 90 0.8 SW 13 15 7 8 1025.8 1025.8 0.0
23/03:00am 9.6 6.6 7.9 89 0.8 SW 13 15 7 8 1025.7 1025.7 0.0
23/02:30am 10.0 7.1 8.1 88 0.9 SSW 13 17 7 9 1025.8 1025.8 0.0
23/02:00am 10.1 7.2 8.0 87 1.0 SW 13 15 7 8 1025.9 1025.9 0.0
23/01:30am 10.0 7.1 8.1 88 0.9 SW 13 17 7 9 1026.0 1026.0 0.0
23/01:00am 10.1 6.5 8.2 88 0.9 SW 17 19 9 10 1026.1 1026.1 0.0
23/12:30am 10.4 7.2 8.5 88 0.9 SW 15 19 8 10 1026.2 1026.2 0.0
23/12:00am 10.5 6.9 8.3 86 1.1 SW 17 19 9 10 1026.3 1026.3 0.0
 
Date/Time
EST
Temp
°C
App
Temp
°C
Dew
Point
°C
Rel
Hum
%
Delta-T
°C
Wind Press
QNH
hPa
Press
MSL
hPa
Rain since
9am
mm
Dir  Spd
km/h
Gust
km/h
Spd
kts
Gust
kts
22/11:30pm 10.7 7.5 8.3 85 1.2 SW 15 19 8 10 1026.3 1026.3 0.0
22/11:00pm 10.5 7.3 8.6 88 0.9 WSW 15 17 8 9 1026.5 1026.5 0.0
22/10:30pm 10.8 7.7 8.9 88 0.9 WSW 15 17 8 9 1026.7 1026.7 0.0
22/10:00pm 11.3 8.2 9.0 86 1.1 WSW 15 19 8 10 1026.7 1026.7 0.0
22/09:30pm 11.5 8.8 9.1 85 1.2 WSW 13 15 7 8 1026.6 1026.6 0.0
22/09:00pm 11.9 9.9 10.0 88 1.0 WSW 11 13 6 7 1026.5 1026.5 0.0
22/08:30pm 12.3 11.0 10.0 86 1.2 SSW 7 9 4 5 1026.3 1026.3 0.0
22/08:00pm 13.2 13.1 9.3 77 2.0 CALM 0 4 0 2 1026.1 1026.1 0.0
22/07:30pm 14.3 12.8 9.1 71 2.6 SE 7 9 4 5 1026.0 1026.0 0.0
22/07:00pm 15.3 13.2 9.7 69 2.9 ESE 11 11 6 6 1025.7 1025.7 0.0
22/06:30pm 15.8 13.4 10.1 69 3.0 ESE 13 15 7 8 1025.5 1025.5 0.0
22/06:00pm 16.0 13.6 10.1 68 3.1 ESE 13 15 7 8 1025.2 1025.2 0.0
22/05:30pm 16.5 14.1 10.1 66 3.4 ESE 13 15 7 8 1024.8 1024.8 0.0
22/05:00pm 16.9 14.3 9.3 61 3.9 E 13 13 7 7 1024.4 1024.4 0.0
22/04:30pm 17.8 14.6 8.4 54 4.8 ESE 15 17 8 9 1024.3 1024.3 0.0
22/04:00pm 18.3 14.6 8.0 51 5.2 ESE 17 19 9 10 1024.0 1024.0 0.0
22/03:30pm 18.7 15.7 7.5 48 5.7 ESE 13 15 7 8 1023.9 1023.9 0.0
22/03:00pm 19.0 15.7 6.5 44 6.2 SE 13 17 7 9 1024.0 1024.0 0.0
22/02:30pm 19.2 15.4 5.6 41 6.7 SE 15 17 8 9 1024.0 1024.0 0.0
22/02:00pm 19.8 16.3 5.5 39 7.0 SE 13 15 7 8 1024.2 1024.2 0.0
22/01:30pm 19.6 16.0 6.7 43 6.5 SSE 15 17 8 9 1024.6 1024.6 0.0
22/01:00pm 19.4 15.6 5.8 41 6.7 SSE 15 17 8 9 1024.8 1024.8 0.0
22/12:30pm 19.2 15.9 6.3 43 6.4 S 13 15 7 8 1025.1 1025.1 0.0
22/12:00pm 19.5 16.3 6.9 44 6.3 S 13 15 7 8 1025.6 1025.6 0.0
22/11:30am 19.0 15.3 6.5 44 6.2 S 15 19 8 10 1026.1 1026.1 0.0
22/11:00am 18.4 14.1 5.3 42 6.3 S 17 20 9 11 1026.6 1026.6 0.0
22/10:30am 18.1 14.0 6.0 45 5.9 S 17 24 9 13 1026.8 1026.8 0.0
22/10:00am 17.2 13.7 5.5 46 5.6 S 13 20 7 11 1026.9 1026.9 0.0
22/09:30am 15.7 12.2 5.3 50 4.9 SSW 13 19 7 10 1026.9 1026.9 0.0
22/09:00am 14.5 11.3 5.3 54 4.3 SW 11 15 6 8 1026.8 1026.8 0.0
22/08:30am 12.9 10.7 6.0 63 3.3 W 7 11 4 6 1026.5 1026.5 0.0
22/08:00am 10.9 8.5 5.4 69 2.5 W 7 9 4 5 1026.2 1026.2 0.0
22/07:30am 8.8 6.0 5.0 77 1.7 WSW 9 11 5 6 1025.9 1025.9 0.0
22/07:00am 7.4 4.1 4.4 81 1.3 WSW 11 17 6 9 1025.5 1025.5 0.0
22/06:30am 6.9 3.9 4.0 82 1.2 WSW 9 11 5 6 1025.1 1025.1 0.0
22/06:00am 7.8 4.4 4.2 78 1.6 WSW 11 13 6 7 1024.5 1024.5 0.0
22/05:30am 8.2 4.1 4.2 76 1.7 WSW 15 19 8 10 1024.0 1024.0 0.0
22/05:00am 7.9 3.8 4.1 77 1.6 SW 15 19 8 10 1023.7 1023.7 0.0
22/04:30am 7.5 3.7 3.7 77 1.6 WSW 13 15 7 8 1023.5 1023.5 0.0
22/04:00am 8.3 4.5 4.1 75 1.8 WSW 13 17 7 9 1023.4 1023.4 0.0
22/03:30am 8.3 4.5 4.1 75 1.8 WSW 13 19 7 10 1023.3 1023.3 0.0
22/03:00am 9.3 5.5 3.9 69 2.3 WSW 13 17 7 9 1023.2 1023.2 0.0
22/02:30am 8.9 5.4 3.5 69 2.3 W 11 15 6 8 1023.0 1023.0 0.0
22/02:00am 9.4 5.5 3.6 67 2.5 W 13 15 7 8 1023.0 1023.0 0.0
22/01:30am 9.5 5.8 4.3 70 2.3 W 13 17 7 9 1023.0 1023.0 0.0
22/01:00am 10.0 6.2 4.0 66 2.6 WSW 13 19 7 10 1022.8 1022.8 0.0
22/12:30am 10.5 6.7 3.8 63 3.0 WSW 13 19 7 10 1022.7 1022.7 0.0
22/12:00am 10.7 6.5 3.7 62 3.1 WSW 15 20 8 11 1022.5 1022.5 0.0
 
Date/Time
EST
Temp
°C
App
Temp
°C
Dew
Point
°C
Rel
Hum
%
Delta-T
°C
Wind Press
QNH
hPa
Press
MSL
hPa
Rain since
9am
mm
Dir  Spd
km/h
Gust
km/h
Spd
kts
Gust
kts
21/11:30pm 11.4 7.2 3.7 59 3.4 WSW 15 19 8 10 1022.5 1022.5 0.0
21/11:00pm 12.5 8.1 2.9 52 4.2 WSW 15 19 8 10 1022.5 1022.5 0.0
21/10:30pm 12.0 7.6 2.7 53 4.1 W 15 19 8 10 1022.5 1022.5 0.0
21/10:00pm 12.1 9.3 3.1 54 3.9 WNW 7 11 4 6 1022.4 1022.4 0.0
21/09:30pm 12.3 8.7 2.7 52 4.2 NNW 11 13 6 7 1022.1 1022.1 0.0
21/09:00pm 13.0 8.5 2.3 48 4.6 WSW 15 17 8 9 1021.5 1021.5 0.0
21/08:30pm 13.0 8.1 2.0 47 4.8 WSW 17 22 9 12 1021.3 1021.3 0.0
21/08:00pm 14.1 9.9 1.7 43 5.4 WSW 13 19 7 10 1021.1 1021.1 0.0
21/07:30pm 14.9 9.9 1.1 39 6.0 W 17 26 9 14 1021.0 1021.0 0.0
21/07:00pm 15.5 11.1 0.1 35 6.5 W 13 19 7 10 1020.5 1020.5 0.0
21/06:30pm 15.8 11.4 0.4 35 6.6 W 13 19 7 10 1020.2 1020.2 0.0
21/06:00pm 16.5 11.7 0.2 33 7.0 WNW 15 19 8 10 1019.9 1019.9 0.0
21/05:30pm 17.2 12.0 -0.1 31 7.4 W 17 24 9 13 1019.7 1019.7 0.0
21/05:00pm 18.2 12.0 -0.1 29 7.9 WSW 22 37 12 20 1019.1 1019.1 0.0
21/04:30pm 18.9 13.3 0.0 28 8.3 WSW 19 30 10 16 1018.8 1018.8 0.0
21/04:00pm 19.5 12.9 -0.5 26 8.7 WSW 24 35 13 19 1018.4 1018.4 0.0
21/03:30pm 20.1 13.5 -0.5 25 9.0 WSW 24 33 13 18 1018.1 1018.1 0.0
21/03:00pm 20.6 14.7 -0.7 24 9.3 WSW 20 30 11 16 1017.7 1017.7 0.0
21/02:30pm 20.7 14.8 -1.1 23 9.5 WSW 20 32 11 17 1017.6 1017.6 0.0
21/02:00pm 20.0 14.3 0.5 27 8.7 W 20 32 11 17 1017.5 1017.5 0.0
21/01:30pm 19.9 14.3 0.9 28 8.5 WSW 20 28 11 15 1017.6 1017.6 0.0
21/01:00pm 19.6 13.7 1.6 30 8.2 W 22 32 12 17 1017.9 1017.9 0.0
21/12:30pm 19.2 13.7 1.7 31 7.9 WSW 20 32 11 17 1018.4 1018.4 0.0
21/12:00pm 18.6 12.9 0.7 30 7.9 W 20 33 11 18 1018.9 1018.9 0.0
21/11:30am 17.9 12.4 1.8 34 7.2 WSW 20 32 11 17 1019.4 1019.4 0.0
21/11:00am 17.9 12.5 2.2 35 7.1 WSW 20 35 11 19 1019.7 1019.7 0.0
21/10:30am 17.0 11.1 1.8 36 6.8 WSW 22 32 12 17 1020.4 1020.4 0.0

Latest Capital City Observations: Canberra | Sydney | Melbourne | Brisbane | Adelaide | Perth | Hobart | Darwin

Other formats

Comma delimited format used in spreadsheet applications
http://www.bom.gov.au/fwo/IDQ60901/IDQ60901.95591.axf

JavaScript Object Notation format (JSON) in row-major order
http://www.bom.gov.au/fwo/IDQ60901/IDQ60901.95591.json

Data quality

Most of these data are generated automatically and are frequently updated. Quality checks on data are not normally performed. It is possible for incorrect values to appear. Refer to information at About Latest Weather Observations and please check the disclaimer before using these data.